Ust' Kalmanka, Russia
Current Conditions -  °F | °C
As of 11:30 PM on Saturday 22 Nov 2014 (Local Time) from UNBB Reporting Station
Blowing Snow Blowing Snow  
Wind Chill: -12°   Ceiling: 1300
Heat Index: -4°   Visibility: 6mi
Dew Point: -6°   Wind: 18mph
Humidity: 86%   Direction: 220°SW
Pressure: 30.09"   Gusts: NA
Location:  52.12°N, 83.32°E
Report Text: UNBB 221630Z 22008MPS 9999 DRSN BKN013 M04/M06 Q1019 NOSIG RMKQFE742/0989 24800550
Loading
Personal Weather Stations






























Interactive Weather Map New forecast layout! Learn more

10-Day Weather Forecast

Advertisements
Track Severe Weather on mobile